Time;durP1;ratioP1;P1;durP2;ratioP2;P2;SDS_P1;SDS_P2;PMS_P1;PMS_P2;Temp;Humidity;BMP_temperature;BMP_pressure;BME280_temperature;BME280_humidity;BME280_pressure;Samples;Min_cycle;Max_cycle;Signal;HPM_P1;HPM_P2
2024/01/03 00:00:28;;;;;;;0.50;0.50;;;;;;;9.34;60.74;93744.97;6183667;23;20020;-85
2024/01/03 00:02:57;;;;;;;0.80;0.70;;;;;;;9.96;58.66;93741.88;6183834;23;20001;-86
2024/01/03 00:05:24;;;;;;;1.70;0.70;;;;;;;9.47;60.84;93709.59;6183646;23;20020;-84
2024/01/03 00:07:50;;;;;;;2.00;0.95;;;;;;;9.38;61.77;93712.41;6181476;23;20012;-86
2024/01/03 00:10:31;;;;;;;1.00;0.90;;;;;;;9.48;62.47;93713.75;6133155;23;20036;-85
2024/01/03 00:12:56;;;;;;;2.92;1.20;;;;;;;9.69;62.29;93716.06;6184111;23;20008;-85
2024/01/03 00:15:34;;;;;;;1.25;0.90;;;;;;;9.99;61.76;93720.66;6183892;23;20009;-86
2024/01/03 00:18:03;;;;;;;1.30;0.90;;;;;;;10.22;60.93;93735.66;6183265;23;20048;-85
2024/01/03 00:20:28;;;;;;;1.38;1.00;;;;;;;10.18;61.10;93750.91;6182738;23;20008;-85
2024/01/03 00:22:55;;;;;;;1.42;0.95;;;;;;;10.02;61.19;93720.25;6159004;23;20012;-85
2024/01/03 00:25:28;;;;;;;1.00;0.90;;;;;;;10.17;59.75;93718.13;6134234;23;20084;-85
2024/01/03 00:27:54;;;;;;;1.13;0.90;;;;;;;10.22;59.69;93724.50;6183179;23;20031;-85
2024/01/03 00:30:20;;;;;;;1.33;0.90;;;;;;;10.57;59.44;93763.84;6133957;23;20092;-85
2024/01/03 00:32:46;;;;;;;1.58;1.10;;;;;;;10.51;59.84;93775.09;6183704;23;20009;-85
2024/01/03 00:35:12;;;;;;;1.30;1.00;;;;;;;10.15;61.29;93756.53;6158516;23;20005;-85
2024/01/03 00:37:40;;;;;;;1.63;1.20;;;;;;;10.31;60.77;93796.81;6134009;23;20033;-85
2024/01/03 00:40:28;;;;;;;1.50;1.10;;;;;;;10.34;60.30;93774.81;6158597;23;20104;-85
2024/01/03 00:42:54;;;;;;;1.52;1.08;;;;;;;10.14;60.63;93767.91;6182944;23;19997;-85
2024/01/03 00:45:19;;;;;;;1.30;0.90;;;;;;;10.40;59.84;93760.19;6182299;23;20008;-85
2024/01/03 00:47:44;;;;;;;2.20;1.00;;;;;;;10.13;60.53;93768.13;6158223;23;20013;-85
2024/01/03 00:50:12;;;;;;;1.20;0.90;;;;;;;10.09;60.60;93785.94;6157915;23;20009;-85
2024/01/03 00:52:37;;;;;;;1.20;0.90;;;;;;;10.08;60.71;93805.13;6133639;23;20001;-85
2024/01/03 00:55:03;;;;;;;1.20;1.00;;;;;;;10.23;60.81;93804.84;6157851;23;19997;-85
2024/01/03 00:57:30;;;;;;;1.13;1.02;;;;;;;10.26;61.07;93814.81;6182601;23;20032;-85
2024/01/03 00:59:55;;;;;;;1.55;1.23;;;;;;;10.22;60.60;93805.03;6182868;23;20021;-86
2024/01/03 01:02:21;;;;;;;1.90;1.10;;;;;;;9.93;61.51;93820.19;6158224;23;20012;-85
2024/01/03 01:04:46;;;;;;;1.75;1.30;;;;;;;10.11;61.22;93809.09;6157845;23;20009;-85
2024/01/03 01:07:12;;;;;;;1.20;0.90;;;;;;;10.11;60.98;93832.47;6132938;23;20127;-85
2024/01/03 01:09:37;;;;;;;1.50;1.20;;;;;;;10.01;61.86;93817.34;6157915;23;20020;-85
2024/01/03 01:12:03;;;;;;;2.20;1.38;;;;;;;10.06;61.25;93809.72;6183009;23;20155;-85
2024/01/03 01:14:29;;;;;;;1.30;1.20;;;;;;;9.93;61.75;93799.41;6188058;23;20055;-85
2024/01/03 01:16:54;;;;;;;2.95;1.83;;;;;;;9.71;62.42;93807.53;6186569;23;20008;-86
2024/01/03 01:19:19;;;;;;;2.13;1.40;;;;;;;9.78;62.02;93828.25;6163284;23;20012;-85
2024/01/03 01:21:48;;;;;;;2.60;1.90;;;;;;;9.63;62.68;93810.31;6187409;23;20140;-85
2024/01/03 01:24:14;;;;;;;1.85;1.60;;;;;;;9.76;62.45;93841.44;6187391;23;20005;-85
2024/01/03 01:26:39;;;;;;;1.90;1.40;;;;;;;10.02;61.86;93823.34;6162593;23;20015;-85
2024/01/03 01:29:05;;;;;;;2.70;1.27;;;;;;;9.86;62.24;93825.44;6187931;23;20013;-86
2024/01/03 01:31:30;;;;;;;1.38;1.20;;;;;;;9.91;62.17;93832.59;6162899;23;20019;-85
2024/01/03 01:33:56;;;;;;;1.63;1.25;;;;;;;9.93;61.89;93820.19;6188089;23;20088;-85
2024/01/03 01:36:21;;;;;;;1.70;1.23;;;;;;;9.98;61.77;93809.97;6187512;23;20024;-85
2024/01/03 01:38:47;;;;;;;1.48;1.38;;;;;;;9.35;64.94;93821.81;6162650;23;20083;-85
2024/01/03 01:41:12;;;;;;;2.78;1.60;;;;;;;9.57;64.03;93822.31;6188050;23;20004;-85
2024/01/03 01:43:38;;;;;;;2.65;1.45;;;;;;;9.87;63.36;93813.22;6187513;23;20012;-85
2024/01/03 01:46:04;;;;;;;1.42;1.20;;;;;;;10.10;62.48;93826.50;6212231;23;20040;-86
2024/01/03 01:48:30;;;;;;;2.85;1.20;;;;;;;10.12;62.26;93816.69;6187686;23;20013;-86
2024/01/03 01:50:56;;;;;;;2.38;1.40;;;;;;;10.08;62.35;93806.94;6187377;23;20088;-86
2024/01/03 01:53:22;;;;;;;2.33;1.27;;;;;;;10.26;61.55;93807.03;6187387;23;20083;-85
2024/01/03 01:55:48;;;;;;;2.53;1.20;;;;;;;10.48;61.48;93819.69;6211995;23;20043;-85
2024/01/03 01:58:14;;;;;;;1.30;1.20;;;;;;;10.62;61.39;93821.19;6186073;23;20066;-86
2024/01/03 02:00:41;;;;;;;1.80;1.40;;;;;;;10.63;61.15;93814.19;6185600;23;20040;-86
2024/01/03 02:03:08;;;;;;;1.58;1.40;;;;;;;10.62;61.55;93817.78;6187455;23;20005;-84
2024/01/03 02:05:37;;;;;;;1.40;1.20;;;;;;;10.48;61.19;93797.09;6187053;23;20019;-86
2024/01/03 02:08:07;;;;;;;1.60;1.50;;;;;;;10.46;61.85;93808.72;6187601;23;20039;-86
2024/01/03 02:10:32;;;;;;;1.90;1.60;;;;;;;10.59;61.53;93800.03;6212257;23;20052;-86
2024/01/03 02:12:58;;;;;;;1.40;1.20;;;;;;;10.75;60.60;93792.47;6162155;23;20028;-85
2024/01/03 02:15:23;;;;;;;1.83;1.45;;;;;;;10.67;61.19;93776.34;6137509;23;20016;-86
2024/01/03 02:17:50;;;;;;;1.33;1.20;;;;;;;10.76;61.15;93785.47;6137958;23;20078;-85
2024/01/03 02:20:16;;;;;;;1.73;1.27;;;;;;;10.62;61.32;93771.00;6186854;23;20105;-86
2024/01/03 02:22:42;;;;;;;1.45;1.35;;;;;;;10.53;61.42;93766.06;6187369;23;20044;-86
2024/01/03 02:25:10;;;;;;;2.00;1.67;;;;;;;10.70;61.13;93771.53;6138053;23;20047;-86
2024/01/03 02:27:36;;;;;;;1.13;1.02;;;;;;;10.78;60.46;93765.25;6163058;23;20032;-86
2024/01/03 02:30:03;;;;;;;3.45;1.80;;;;;;;10.98;60.25;93764.25;6162230;23;20008;-85
2024/01/03 02:32:29;;;;;;;2.30;2.00;;;;;;;10.80;60.59;93750.22;6162573;23;20035;-85
2024/01/03 02:34:54;;;;;;;2.63;2.00;;;;;;;10.56;61.53;93770.03;6137655;23;20012;-86
2024/01/03 02:37:22;;;;;;;2.38;2.17;;;;;;;10.48;61.86;93772.91;6162359;23;20015;-86
2024/01/03 02:39:50;;;;;;;2.38;2.05;;;;;;;10.48;61.39;93765.91;6139113;23;20024;-86
2024/01/03 02:42:15;;;;;;;2.70;1.83;;;;;;;10.43;61.54;93757.13;6162558;23;20161;-86
2024/01/03 02:44:44;;;;;;;3.00;2.08;;;;;;;10.47;61.20;93761.72;6137712;23;20076;-86
2024/01/03 02:47:09;;;;;;;2.70;1.88;;;;;;;9.69;63.76;93756.78;6162590;23;20016;-86
2024/01/03 02:49:35;;;;;;;2.00;1.75;;;;;;;9.29;64.45;93747.41;6162232;23;20019;-86
2024/01/03 02:54:26;;;;;;;1.98;1.60;;;;;;;9.56;63.87;93742.09;6212166;23;20023;-86
2024/01/03 02:56:53;;;;;;;1.60;1.42;;;;;;;9.33;64.61;93743.38;6186759;23;20035;-86
2024/01/03 02:59:19;;;;;;;2.50;1.40;;;;;;;9.22;64.80;93731.06;6162649;23;20032;-85
2024/01/03 03:01:48;;;;;;;2.30;1.60;;;;;;;9.61;63.69;93750.03;6162760;23;20019;-86
2024/01/03 03:04:17;;;;;;;1.48;1.30;;;;;;;9.74;63.23;93736.97;6186251;23;20005;-86
2024/01/03 03:06:43;;;;;;;2.10;1.50;;;;;;;9.74;62.73;93718.81;6137724;23;20008;-86
2024/01/03 03:09:08;;;;;;;1.55;1.33;;;;;;;9.85;62.75;93706.19;6186996;23;20035;-86
2024/01/03 03:11:34;;;;;;;3.30;1.23;;;;;;;9.99;61.90;93707.66;6162906;23;20031;-86
2024/01/03 03:14:02;;;;;;;1.85;1.58;;;;;;;10.06;62.03;93711.00;6189001;23;20008;-85
2024/01/03 03:16:28;;;;;;;2.63;1.40;;;;;;;10.21;61.62;93707.31;6188309;23;20364;-86
2024/01/03 03:18:53;;;;;;;2.05;1.67;;;;;;;10.25;61.52;93708.50;6188828;23;19992;-86
2024/01/03 03:23:44;;;;;;;2.10;1.70;;;;;;;10.23;61.60;93700.13;6187474;23;20043;-86
2024/01/03 03:26:11;;;;;;;2.00;1.80;;;;;;;10.37;61.23;93696.41;6164359;23;20019;-86
2024/01/03 03:28:39;;;;;;;2.45;2.10;;;;;;;10.27;61.99;93691.66;6188426;23;20016;-85
2024/01/03 03:31:06;;;;;;;1.88;1.70;;;;;;;10.12;62.29;93689.38;6189282;23;20016;-86
2024/01/03 03:33:32;;;;;;;1.95;1.23;;;;;;;10.50;60.89;93680.69;6164177;23;20008;-86
2024/01/03 03:35:57;;;;;;;1.85;1.67;;;;;;;10.33;62.17;93679.66;6163959;23;20008;-86
2024/01/03 03:38:23;;;;;;;2.00;1.55;;;;;;;10.39;62.26;93681.41;6163567;23;20088;-86
2024/01/03 03:40:51;;;;;;;2.67;1.40;;;;;;;10.52;61.48;93680.47;6163774;23;20017;-85
2024/01/03 03:43:16;;;;;;;1.98;1.73;;;;;;;10.42;62.02;93691.38;6188703;23;20021;-85
2024/01/03 03:45:42;;;;;;;2.20;1.98;;;;;;;10.48;61.70;93698.31;6188681;23;20052;-85
2024/01/03 03:48:07;;;;;;;2.17;1.80;;;;;;;10.39;61.53;93691.78;6162457;23;20040;-85
2024/01/03 03:50:33;;;;;;;1.80;1.45;;;;;;;10.51;61.21;93697.88;6162943;23;20012;-85
2024/01/03 03:52:58;;;;;;;1.55;1.00;;;;;;;10.28;61.44;93690.66;6139287;23;20004;-85
2024/01/03 03:55:25;;;;;;;1.13;1.02;;;;;;;10.10;61.57;93694.00;6188715;23;20016;-85
2024/01/03 03:57:53;;;;;;;1.40;1.30;;;;;;;9.91;62.34;93694.94;6187540;23;20005;-86
2024/01/03 04:00:19;;;;;;;2.35;1.30;;;;;;;10.08;61.92;93690.81;6188663;23;20001;-85
2024/01/03 04:02:46;;;;;;;1.95;1.20;;;;;;;10.11;61.90;93690.41;6188922;23;20158;-85
2024/01/03 04:05:12;;;;;;;1.52;1.30;;;;;;;10.34;61.13;93686.47;6188455;23;20040;-85
2024/01/03 04:07:37;;;;;;;1.70;1.48;;;;;;;10.07;61.94;93678.84;6187908;23;20010;-85
2024/01/03 04:10:06;;;;;;;1.80;1.50;;;;;;;10.16;61.87;93680.16;6163450;23;20005;-85
2024/01/03 04:12:36;;;;;;;2.38;1.33;;;;;;;10.32;61.37;93686.66;6163394;23;20009;-86
2024/01/03 04:15:03;;;;;;;2.40;1.52;;;;;;;10.23;61.83;93700.91;6165846;23;20091;-85
2024/01/03 04:19:55;;;;;;;1.40;1.30;;;;;;;10.24;62.05;93667.91;6213401;23;20032;-85
2024/01/03 04:22:21;;;;;;;2.28;1.20;;;;;;;10.27;61.63;93677.88;6139129;23;20008;-85
2024/01/03 04:24:47;;;;;;;1.40;1.30;;;;;;;10.38;61.62;93669.41;6188167;23;20087;-85
2024/01/03 04:27:12;;;;;;;1.10;1.00;;;;;;;10.64;60.41;93689.19;6138232;23;20067;-85
2024/01/03 04:29:41;;;;;;;1.20;1.10;;;;;;;10.58;60.45;93674.41;6163224;23;20062;-84
2024/01/03 04:32:07;;;;;;;1.20;1.10;;;;;;;10.61;60.72;93675.81;6139628;23;20036;-85
2024/01/03 04:34:39;;;;;;;2.28;1.10;;;;;;;10.46;61.14;93700.34;6163026;23;20004;-86
2024/01/03 04:37:04;;;;;;;2.05;1.60;;;;;;;10.47;61.01;93734.91;6164119;23;20026;-85
2024/01/03 04:39:29;;;;;;;3.17;2.00;;;;;;;10.36;61.57;93739.00;6138593;23;20036;-85
2024/01/03 04:41:55;;;;;;;2.85;2.00;;;;;;;10.33;61.65;93732.41;6187554;23;20000;-85
2024/01/03 04:44:20;;;;;;;1.90;1.45;;;;;;;10.46;61.47;93756.72;6163402;23;20005;-85
2024/01/03 04:46:46;;;;;;;1.58;1.17;;;;;;;10.41;61.91;93783.34;6163586;23;20088;-85
2024/01/03 04:49:11;;;;;;;1.40;1.27;;;;;;;10.51;61.42;93757.69;6163322;23;20005;-85
2024/01/03 04:51:39;;;;;;;2.67;1.40;;;;;;;10.47;61.70;93751.31;6137188;23;20024;-86
2024/01/03 04:54:04;;;;;;;3.58;1.65;;;;;;;10.43;61.96;93760.53;6138017;23;20005;-85
2024/01/03 04:56:30;;;;;;;1.60;1.50;;;;;;;10.30;62.32;93752.81;6161633;23;20039;-86
2024/01/03 04:58:57;;;;;;;2.83;2.05;;;;;;;10.06;62.94;93759.59;6137431;23;20005;-86
2024/01/03 05:01:27;;;;;;;2.92;1.63;;;;;;;10.19;62.46;93777.69;6138024;23;20008;-85
2024/01/03 05:03:52;;;;;;;1.95;1.27;;;;;;;10.30;61.86;93779.63;6163387;23;20009;-85
2024/01/03 05:06:18;;;;;;;1.63;1.50;;;;;;;10.47;61.39;93768.69;6163061;23;20012;-85
2024/01/03 05:08:43;;;;;;;2.20;2.00;;;;;;;10.09;62.61;93764.34;6138416;23;20123;-85
2024/01/03 05:11:12;;;;;;;3.42;1.92;;;;;;;9.82;63.34;93758.53;6163108;23;20072;-85
2024/01/03 05:13:38;;;;;;;2.40;1.77;;;;;;;9.58;64.66;93771.22;6187310;23;20012;-85
2024/01/03 05:16:03;;;;;;;2.60;2.10;;;;;;;9.71;63.67;93772.94;6162508;23;20076;-84
2024/01/03 05:18:29;;;;;;;2.17;1.70;;;;;;;10.02;63.08;93787.78;6137531;23;20009;-85
2024/01/03 05:20:54;;;;;;;1.70;1.30;;;;;;;9.74;63.63;93785.53;6162946;23;20000;-85
2024/01/03 05:23:22;;;;;;;1.63;1.25;;;;;;;10.05;62.69;93807.34;6162545;23;20016;-85
2024/01/03 05:25:48;;;;;;;1.77;1.00;;;;;;;10.04;62.70;93798.75;6163455;23;20091;-85
2024/01/03 05:28:13;;;;;;;1.58;1.02;;;;;;;9.98;63.31;93808.19;6162182;23;20040;-85
2024/01/03 05:30:42;;;;;;;1.48;1.20;;;;;;;10.08;62.58;93810.31;6187831;23;20016;-86
2024/01/03 05:33:07;;;;;;;2.22;1.10;;;;;;;10.02;62.90;93813.75;6187596;23;20000;-85
2024/01/03 05:35:33;;;;;;;1.30;1.02;;;;;;;10.14;62.11;93827.66;6137887;23;20086;-85
2024/01/03 05:37:58;;;;;;;1.35;1.00;;;;;;;10.29;61.40;93816.19;6186707;23;20083;-85
2024/01/03 05:40:24;;;;;;;0.95;0.50;;;;;;;10.17;60.72;93823.88;6161552;23;20103;-85
2024/01/03 05:42:49;;;;;;;0.40;0.40;;;;;;;10.34;60.01;93829.41;6137928;23;20013;-85
2024/01/03 05:45:15;;;;;;;0.80;0.80;;;;;;;10.44;60.41;93827.13;6162540;23;20009;-85
2024/01/03 05:47:40;;;;;;;0.57;0.57;;;;;;;10.56;59.89;93830.63;6162680;23;20005;-86
2024/01/03 05:50:08;;;;;;;1.15;0.70;;;;;;;10.28;61.19;93831.00;6137978;23;20039;-85
2024/01/03 05:52:35;;;;;;;0.98;0.55;;;;;;;10.34;60.40;93822.38;6187804;23;20059;-85
2024/01/03 05:55:06;;;;;;;0.68;0.50;;;;;;;10.37;60.45;93841.94;6187133;23;20087;-85
2024/01/03 05:57:32;;;;;;;1.80;0.60;;;;;;;10.70;59.10;93836.53;6162519;23;20000;-85
2024/01/03 06:00:00;;;;;;;1.50;1.02;;;;;;;10.46;59.91;93840.69;6162708;23;20135;-85
2024/01/03 06:02:26;;;;;;;0.40;0.40;;;;;;;10.68;59.44;93840.34;6162838;23;20095;-85
2024/01/03 06:04:51;;;;;;;0.60;0.60;;;;;;;10.53;59.95;93849.25;6161667;23;20036;-85
2024/01/03 06:09:43;;;;;;;0.50;0.50;;;;;;;10.71;58.69;93827.72;6199646;23;20032;-85
2024/01/03 06:12:08;;;;;;;0.30;0.30;;;;;;;10.46;58.39;93838.09;6157720;23;20047;-85
2024/01/03 06:14:34;;;;;;;0.60;0.60;;;;;;;10.27;59.64;93841.59;6157436;23;20001;-85
2024/01/03 06:17:00;;;;;;;0.82;0.50;;;;;;;10.51;59.11;93837.47;6157096;23;20032;-85
2024/01/03 06:19:26;;;;;;;0.60;0.40;;;;;;;10.61;59.13;93842.22;6181956;23;20013;-85
2024/01/03 06:21:53;;;;;;;0.68;0.50;;;;;;;10.82;58.37;93844.44;6182475;23;20028;-85
2024/01/03 06:24:19;;;;;;;0.68;0.50;;;;;;;10.80;58.42;93849.06;6158064;23;20101;-85
2024/01/03 06:29:20;;;;;;;2.60;0.55;;;;;;;11.02;57.10;93846.06;6212020;23;20020;-85
2024/01/03 06:31:45;;;;;;;0.70;0.50;;;;;;;11.13;56.61;93853.97;6161251;23;20032;-85
2024/01/03 06:34:11;;;;;;;0.93;0.40;;;;;;;11.18;56.84;93852.56;6185653;23;20008;-85
2024/01/03 06:36:36;;;;;;;0.90;0.60;;;;;;;10.99;56.63;93854.31;6185150;23;20027;-85
2024/01/03 06:39:02;;;;;;;1.67;0.52;;;;;;;10.89;56.82;93853.00;6161149;23;20011;-85
2024/01/03 06:41:27;;;;;;;0.55;0.55;;;;;;;10.79;57.42;93846.66;6161023;23;20009;-85
2024/01/03 06:43:53;;;;;;;1.65;0.90;;;;;;;10.71;57.93;93850.31;6136404;23;20009;-84
2024/01/03 06:46:18;;;;;;;1.15;0.70;;;;;;;11.01;57.13;93863.50;6136765;23;20019;-85
2024/01/03 06:48:44;;;;;;;2.60;0.60;;;;;;;10.88;57.24;93853.19;6136919;23;20009;-85
2024/01/03 06:51:09;;;;;;;0.70;0.55;;;;;;;11.09;57.00;93870.22;6161865;23;20015;-85
2024/01/03 06:53:35;;;;;;;0.95;0.80;;;;;;;11.03;57.21;93863.28;6162519;23;20008;-85
2024/01/03 06:56:00;;;;;;;0.80;0.70;;;;;;;11.12;56.76;93865.41;6186925;23;20011;-85
2024/01/03 06:58:26;;;;;;;1.58;0.50;;;;;;;11.23;56.76;93876.94;6162165;23;20095;-85
2024/01/03 07:00:51;;;;;;;1.10;0.60;;;;;;;11.25;56.15;93887.09;6187348;23;20020;-85
2024/01/03 07:03:17;;;;;;;1.45;0.70;;;;;;;11.10;57.09;93897.84;6162260;23;20072;-85
2024/01/03 07:05:43;;;;;;;0.73;0.70;;;;;;;10.82;58.35;93904.25;6187805;23;20013;-86
2024/01/03 07:08:09;;;;;;;2.05;0.60;;;;;;;10.93;58.01;93902.78;6185963;23;20008;-85
2024/01/03 07:10:35;;;;;;;0.60;0.60;;;;;;;11.09;57.29;93904.06;6162326;23;20013;-85
2024/01/03 07:13:00;;;;;;;0.95;0.70;;;;;;;11.23;56.76;93902.94;6162118;23;20042;-85
2024/01/03 07:15:29;;;;;;;1.00;0.70;;;;;;;11.05;57.06;93903.69;6187084;23;20089;-86
2024/01/03 07:17:55;;;;;;;0.85;0.57;;;;;;;11.14;56.34;93897.22;6162368;23;20009;-85
2024/01/03 07:20:24;;;;;;;1.27;0.70;;;;;;;11.26;55.95;93893.91;6187164;23;20059;-85
2024/01/03 07:22:50;;;;;;;1.83;0.70;;;;;;;11.27;55.99;93898.09;6186777;23;19996;-85
2024/01/03 07:25:17;;;;;;;1.48;0.98;;;;;;;11.32;55.82;93885.25;6162252;23;20017;-85
2024/01/03 07:27:47;;;;;;;1.47;0.70;;;;;;;11.15;56.20;93864.16;6134043;23;1223313;-86
2024/01/03 07:30:12;;;;;;;1.15;0.70;;;;;;;11.45;54.95;93871.31;6187283;23;20043;-86
2024/01/03 07:32:41;;;;;;;0.90;0.60;;;;;;;11.19;55.30;93869.75;6188256;23;20008;-85
2024/01/03 07:35:06;;;;;;;1.80;0.63;;;;;;;11.24;54.81;93872.50;6189070;23;20035;-85
2024/01/03 07:37:32;;;;;;;1.23;0.60;;;;;;;11.20;55.35;93876.56;6163740;23;20004;-86
2024/01/03 07:39:58;;;;;;;1.40;0.90;;;;;;;11.33;54.79;93879.81;6162486;23;20016;-85
2024/01/03 07:42:23;;;;;;;1.95;0.60;;;;;;;11.29;54.24;93860.44;6164147;23;20011;-86
2024/01/03 07:44:51;;;;;;;2.35;0.80;;;;;;;11.48;54.13;93863.03;6139247;23;20044;-85
2024/01/03 07:47:17;;;;;;;1.67;0.98;;;;;;;11.57;53.62;93861.75;6188006;23;20012;-85
2024/01/03 07:49:44;;;;;;;1.33;0.75;;;;;;;11.78;53.37;93868.34;6189000;23;20008;-85
2024/01/03 07:54:34;;;;;;;1.25;0.70;;;;;;;11.68;54.42;93868.06;6213625;23;20013;-85
2024/01/03 07:57:04;;;;;;;1.70;1.30;;;;;;;11.79;54.54;93874.38;6138679;23;20084;-85
2024/01/03 07:59:30;;;;;;;2.25;1.67;;;;;;;11.48;55.87;93865.66;6164396;23;20062;-85
2024/01/03 08:01:56;;;;;;;3.00;1.50;;;;;;;11.33;56.34;93866.03;6188674;23;20087;-85
2024/01/03 08:04:21;;;;;;;1.77;1.52;;;;;;;11.03;58.02;93866.69;6163031;23;20023;-86
2024/01/03 08:06:48;;;;;;;1.80;1.42;;;;;;;11.13;57.49;93861.78;6139152;23;20016;-85
2024/01/03 08:09:14;;;;;;;2.50;1.90;;;;;;;11.45;56.87;93845.28;6139034;23;20095;-85
2024/01/03 08:11:39;;;;;;;3.72;2.22;;;;;;;11.28;57.31;93860.66;6187688;23;20043;-85
2024/01/03 08:14:05;;;;;;;4.47;2.35;;;;;;;11.52;56.51;93864.22;6163054;23;20011;-86
2024/01/03 08:16:30;;;;;;;3.00;2.00;;;;;;;12.04;54.90;93872.47;6163106;23;20019;-85
2024/01/03 08:18:56;;;;;;;3.42;1.90;;;;;;;12.62;54.82;93875.53;6187212;23;20009;-85
2024/01/03 08:21:21;;;;;;;2.38;1.60;;;;;;;13.43;50.80;93868.84;6162910;23;20012;-85
2024/01/03 08:23:47;;;;;;;2.28;1.40;;;;;;;14.03;48.36;93869.53;6163444;23;20008;-85
2024/01/03 08:26:12;;;;;;;2.72;1.20;;;;;;;14.15;48.03;93865.06;6162489;23;20044;-85
2024/01/03 08:28:41;;;;;;;1.52;0.90;;;;;;;14.90;46.05;93859.84;6161985;23;20008;-85
2024/01/03 08:31:12;;;;;;;1.45;1.10;;;;;;;15.66;45.77;93872.50;6187146;23;20000;-85
2024/01/03 08:33:38;;;;;;;1.80;1.00;;;;;;;16.05;44.87;93870.66;6186524;23;20001;-85
2024/01/03 08:36:04;;;;;;;1.17;0.90;;;;;;;16.68;43.94;93873.69;6161761;23;20023;-85
2024/01/03 08:38:32;;;;;;;0.98;0.70;;;;;;;17.50;40.20;93861.22;6161159;23;20016;-86
2024/01/03 08:40:58;;;;;;;1.35;0.68;;;;;;;17.64;40.39;93863.41;6137841;23;20008;-87
2024/01/03 08:43:26;;;;;;;2.10;0.90;;;;;;;17.12;40.44;93870.94;6137102;23;20008;-85
2024/01/03 08:45:52;;;;;;;1.85;1.00;;;;;;;17.18;40.99;93888.31;6186694;23;20036;-85
2024/01/03 08:48:18;;;;;;;1.52;0.80;;;;;;;17.20;42.98;93894.13;6186515;23;20055;-86
2024/01/03 08:50:46;;;;;;;0.70;0.60;;;;;;;17.93;39.09;93903.28;6161205;23;20013;-86
2024/01/03 08:53:14;;;;;;;1.15;0.70;;;;;;;18.02;40.68;93911.50;6162495;23;20008;-86
2024/01/03 08:55:40;;;;;;;0.68;0.60;;;;;;;17.75;41.11;93915.78;6162154;23;20035;-85
2024/01/03 09:00:30;;;;;;;1.37;1.10;;;;;;;17.12;42.40;93931.38;6212081;23;20031;-86
2024/01/03 09:03:00;;;;;;;1.52;0.98;;;;;;;16.71;42.24;93919.66;6161827;23;20013;-85
2024/01/03 09:05:25;;;;;;;6.90;6.20;;;;;;;15.93;45.05;93938.16;6163407;23;20011;-86
2024/01/03 09:07:51;;;;;;;6.05;5.07;;;;;;;15.76;45.22;93936.38;6186913;23;20008;-85
2024/01/03 09:10:16;;;;;;;6.93;4.90;;;;;;;15.58;47.23;93940.00;6161985;23;20039;-85
2024/01/03 09:12:53;;;;;;;;;;;;;;;;;;;;;
2024/01/03 09:15:08;;;;;;;27.67;20.15;;;;;;;14.93;47.97;93938.72;6226066;23;20070;-86
2024/01/03 09:17:40;;;;;;;9.63;6.05;;;;;;;14.68;48.55;93935.63;6191862;23;20103;-85
2024/01/03 09:20:06;;;;;;;6.65;5.38;;;;;;;14.28;48.88;93947.69;6193160;23;20035;-85
2024/01/03 09:24:57;;;;;;;3.42;2.17;;;;;;;14.11;48.62;93929.31;6207212;23;20067;-85
2024/01/03 09:27:23;;;;;;;2.65;1.60;;;;;;;13.94;49.32;93931.06;6161642;23;20005;-85
2024/01/03 09:29:49;;;;;;;3.15;1.40;;;;;;;13.87;49.43;93933.78;6161409;23;20013;-85
2024/01/03 09:32:16;;;;;;;1.70;1.30;;;;;;;13.75;49.77;93928.56;6161551;23;20015;-85
2024/01/03 09:34:41;;;;;;;2.80;1.45;;;;;;;13.37;51.84;93937.66;6136994;23;20015;-85
2024/01/03 09:37:07;;;;;;;2.72;1.90;;;;;;;12.99;52.67;93935.41;6136905;23;20016;-86
2024/01/03 09:39:32;;;;;;;2.25;1.48;;;;;;;13.13;52.04;93915.91;6161210;23;20000;-86
2024/01/03 09:41:59;;;;;;;2.13;1.58;;;;;;;13.52;52.62;93936.41;6161787;23;20028;-85
2024/01/03 09:44:26;;;;;;;2.15;1.25;;;;;;;13.65;53.15;93930.94;6186200;23;20004;-87
2024/01/03 09:46:54;;;;;;;2.45;1.60;;;;;;;13.40;53.75;93926.75;6186902;23;20005;-86
2024/01/03 09:49:20;;;;;;;3.85;1.88;;;;;;;13.41;54.18;93932.78;6186775;23;19997;-85
2024/01/03 09:51:47;;;;;;;1.73;1.20;;;;;;;13.40;53.41;93926.75;6162609;23;20009;-85
2024/01/03 09:54:19;;;;;;;3.33;2.10;;;;;;;13.05;54.72;93924.84;6186829;23;20009;-85
2024/01/03 09:56:45;;;;;;;4.95;2.88;;;;;;;13.42;53.78;93918.69;6211516;23;20004;-85
2024/01/03 09:59:11;;;;;;;17.30;11.32;;;;;;;13.15;54.28;93919.09;6187440;23;20005;-85
2024/01/03 10:01:38;;;;;;;10.35;7.57;;;;;;;13.28;54.52;93924.09;6162581;23;20020;-85
2024/01/03 10:04:06;;;;;;;14.48;9.90;;;;;;;13.21;54.38;93920.00;6162061;23;20020;-85
2024/01/03 10:06:31;;;;;;;33.75;22.38;;;;;;;13.49;53.15;93917.53;6162135;23;20044;-84
2024/01/03 10:09:00;;;;;;;34.33;22.48;;;;;;;13.67;51.07;93911.41;6162456;23;20084;-85
2024/01/03 10:11:26;;;;;;;14.65;9.52;;;;;;;13.48;49.99;93913.34;6137793;23;20012;-85
2024/01/03 10:13:56;;;;;;;3.90;2.53;;;;;;;13.24;47.69;93898.66;6186758;23;20016;-85
2024/01/03 10:16:26;;;;;;;4.32;2.83;;;;;;;13.53;48.07;93899.59;6161895;23;20020;-85
2024/01/03 10:19:12;;;;;;;14.93;10.40;;;;;;;13.59;51.90;93903.91;6137821;23;20012;-85
2024/01/03 10:21:51;;;;;;;9.35;6.63;;;;;;;13.53;49.81;93904.03;6186926;23;20008;-85
2024/01/03 10:24:17;;;;;;;8.35;6.15;;;;;;;13.64;54.28;93917.09;6186644;23;20047;-86
2024/01/03 10:26:45;;;;;;;4.68;3.05;;;;;;;13.43;54.27;93904.63;6175781;22;20013;-85
2024/01/03 10:29:13;;;;;;;2.85;2.22;;;;;;;13.28;54.74;93913.66;6185784;23;20036;-86
2024/01/03 10:31:42;;;;;;;3.03;1.95;;;;;;;12.93;54.85;93889.31;6210764;23;20013;-85
2024/01/03 10:34:16;;;;;;;1.75;1.35;;;;;;;12.65;54.41;93888.91;6186499;23;20104;-85
2024/01/03 10:36:45;;;;;;;2.42;1.63;;;;;;;12.96;53.99;93915.75;6211782;23;20009;-85
2024/01/03 10:41:47;;;;;;;2.00;1.42;;;;;;;12.89;51.57;93915.09;6206969;23;20027;-85
2024/01/03 10:44:15;;;;;;;1.50;1.23;;;;;;;12.98;51.79;93907.72;6186791;23;20008;-85
2024/01/03 10:46:42;;;;;;;2.05;1.30;;;;;;;12.41;53.36;93924.53;6161933;23;20004;-85
2024/01/03 10:49:07;;;;;;;3.10;1.30;;;;;;;12.34;52.95;93918.63;6187594;23;20047;-86
2024/01/03 10:51:39;;;;;;;2.00;1.20;;;;;;;12.41;53.34;93916.72;6137899;23;20016;-85
2024/01/03 10:54:06;;;;;;;1.73;1.17;;;;;;;12.54;53.49;93918.34;6162511;23;20017;-84
2024/01/03 10:56:35;;;;;;;1.23;1.00;;;;;;;12.78;51.32;93910.63;6186102;23;20035;-85
2024/01/03 10:59:04;;;;;;;1.88;0.85;;;;;;;12.75;50.71;93909.25;6186421;23;19997;-86
2024/01/03 11:01:34;;;;;;;3.15;2.05;;;;;;;12.89;46.84;93913.25;6162189;23;20008;-85
2024/01/03 11:07:37;;;;;;;1.55;0.90;;;;;;;13.95;47.24;93901.25;6208267;23;20127;-85
2024/01/03 11:10:03;;;;;;;2.35;1.00;;;;;;;14.15;46.38;93908.72;6186045;23;20019;-85
2024/01/03 11:12:29;;;;;;;1.58;0.80;;;;;;;14.45;45.21;93892.84;6136756;23;20039;-85
2024/01/03 11:14:54;;;;;;;1.10;0.80;;;;;;;14.97;46.71;93899.78;6185192;23;20027;-85
2024/01/03 11:17:33;;;;;;;1.00;0.60;;;;;;;15.30;40.62;93895.56;6185365;23;20035;-85
2024/01/03 11:25:08;;;;;;;1.13;0.60;;;;;;;16.22;39.44;93875.81;6191350;23;20055;-85
2024/01/03 11:27:38;;;;;;;1.52;0.68;;;;;;;16.40;40.76;93865.00;6166252;23;20004;-85
2024/01/03 11:30:04;;;;;;;1.15;0.47;;;;;;;16.72;35.55;93858.25;6166639;23;20018;-85
2024/01/03 11:32:32;;;;;;;1.88;0.60;;;;;;;16.78;36.80;93846.72;6191438;23;20035;-85
2024/01/03 11:34:58;;;;;;;0.93;0.60;;;;;;;16.65;39.74;93845.31;6192851;23;20015;-84
2024/01/03 11:37:24;;;;;;;1.65;0.60;;;;;;;16.77;38.94;93848.56;6217732;23;20070;-85
2024/01/03 11:39:52;;;;;;;1.15;0.52;;;;;;;16.55;40.29;93821.59;6217433;23;20031;-85
2024/01/03 11:42:38;;;;;;;1.40;0.57;;;;;;;16.36;39.91;93823.78;6218058;23;20011;-85
2024/01/03 11:45:06;;;;;;;1.40;0.60;;;;;;;16.61;40.71;93815.34;6193527;23;20008;-85
2024/01/03 11:47:40;;;;;;;1.10;0.70;;;;;;;16.72;41.38;93816.22;6217065;23;20107;-85
2024/01/03 11:50:08;;;;;;;1.33;0.68;;;;;;;16.83;43.46;93819.75;6217589;23;20000;-85
2024/01/03 11:52:41;;;;;;;2.97;0.80;;;;;;;16.92;44.42;93820.88;6217669;23;20014;-85
2024/01/03 11:55:16;;;;;;;1.30;0.70;;;;;;;16.45;45.10;93800.47;6192356;23;20103;-85
2024/01/03 11:57:47;;;;;;;1.92;0.90;;;;;;;16.52;45.20;93806.31;6193388;23;20015;-85
2024/01/03 12:02:57;;;;;;;1.48;0.90;;;;;;;16.28;46.89;93796.16;6211769;23;20035;-85
2024/01/03 12:05:28;;;;;;;1.50;0.82;;;;;;;16.20;45.83;93796.56;6217154;23;20015;-85